sensor_id;sensor_type;location;lat;lon;timestamp;P1;durP1;ratioP1;P2;durP2;ratioP2
26981;SDS011;14533;50.848;4.380;2022-10-31T00:01:12;17.45;;;8.38;;
26981;SDS011;14533;50.848;4.380;2022-10-31T00:06:07;15.65;;;7.78;;
26981;SDS011;14533;50.848;4.380;2022-10-31T00:08:33;17.58;;;8.43;;
26981;SDS011;14533;50.848;4.380;2022-10-31T00:10:59;19.42;;;8.43;;
26981;SDS011;14533;50.848;4.380;2022-10-31T00:13:24;13.45;;;7.80;;
26981;SDS011;14533;50.848;4.380;2022-10-31T00:15:50;16.38;;;8.50;;
26981;SDS011;14533;50.848;4.380;2022-10-31T00:18:15;19.80;;;8.10;;
26981;SDS011;14533;50.848;4.380;2022-10-31T00:20:41;16.00;;;7.53;;
26981;SDS011;14533;50.848;4.380;2022-10-31T00:23:07;16.48;;;8.82;;
26981;SDS011;14533;50.848;4.380;2022-10-31T00:25:34;20.80;;;9.43;;
26981;SDS011;14533;50.848;4.380;2022-10-31T00:28:02;19.08;;;7.70;;
26981;SDS011;14533;50.848;4.380;2022-10-31T00:30:29;14.25;;;8.45;;
26981;SDS011;14533;50.848;4.380;2022-10-31T00:32:54;18.35;;;8.23;;
26981;SDS011;14533;50.848;4.380;2022-10-31T00:35:20;18.25;;;8.75;;
26981;SDS011;14533;50.848;4.380;2022-10-31T00:37:45;18.30;;;9.38;;
26981;SDS011;14533;50.848;4.380;2022-10-31T00:40:11;17.85;;;8.73;;
26981;SDS011;14533;50.848;4.380;2022-10-31T00:42:37;16.08;;;7.45;;
26981;SDS011;14533;50.848;4.380;2022-10-31T00:45:04;12.07;;;7.55;;
26981;SDS011;14533;50.848;4.380;2022-10-31T00:47:30;21.38;;;9.52;;
26981;SDS011;14533;50.848;4.380;2022-10-31T00:49:56;15.88;;;9.10;;
26981;SDS011;14533;50.848;4.380;2022-10-31T00:52:21;21.52;;;9.25;;
26981;SDS011;14533;50.848;4.380;2022-10-31T00:54:47;14.52;;;8.20;;
26981;SDS011;14533;50.848;4.380;2022-10-31T00:57:12;15.50;;;8.38;;
26981;SDS011;14533;50.848;4.380;2022-10-31T00:59:38;16.55;;;8.45;;
26981;SDS011;14533;50.848;4.380;2022-10-31T01:02:04;17.45;;;8.18;;
26981;SDS011;14533;50.848;4.380;2022-10-31T01:04:29;16.20;;;8.38;;
26981;SDS011;14533;50.848;4.380;2022-10-31T01:06:55;14.23;;;7.32;;
26981;SDS011;14533;50.848;4.380;2022-10-31T01:09:20;13.38;;;7.80;;
26981;SDS011;14533;50.848;4.380;2022-10-31T01:11:46;18.23;;;8.73;;
26981;SDS011;14533;50.848;4.380;2022-10-31T01:14:11;15.75;;;8.60;;
26981;SDS011;14533;50.848;4.380;2022-10-31T01:16:37;15.50;;;7.82;;
26981;SDS011;14533;50.848;4.380;2022-10-31T01:19:02;13.95;;;7.63;;
26981;SDS011;14533;50.848;4.380;2022-10-31T01:21:28;14.07;;;7.65;;
26981;SDS011;14533;50.848;4.380;2022-10-31T01:23:55;10.70;;;6.88;;
26981;SDS011;14533;50.848;4.380;2022-10-31T01:26:22;13.55;;;7.35;;
26981;SDS011;14533;50.848;4.380;2022-10-31T01:28:51;13.20;;;6.65;;
26981;SDS011;14533;50.848;4.380;2022-10-31T01:31:21;14.68;;;6.55;;
26981;SDS011;14533;50.848;4.380;2022-10-31T01:33:52;12.73;;;7.47;;
26981;SDS011;14533;50.848;4.380;2022-10-31T01:36:22;11.88;;;6.28;;
26981;SDS011;14533;50.848;4.380;2022-10-31T01:38:49;12.60;;;6.72;;
26981;SDS011;14533;50.848;4.380;2022-10-31T01:41:17;12.02;;;6.18;;
26981;SDS011;14533;50.848;4.380;2022-10-31T01:43:52;14.40;;;6.82;;
26981;SDS011;14533;50.848;4.380;2022-10-31T01:46:30;14.35;;;6.80;;
26981;SDS011;14533;50.848;4.380;2022-10-31T01:49:04;12.82;;;6.75;;
26981;SDS011;14533;50.848;4.380;2022-10-31T01:51:35;15.88;;;7.82;;
26981;SDS011;14533;50.848;4.380;2022-10-31T01:54:06;13.20;;;7.15;;
26981;SDS011;14533;50.848;4.380;2022-10-31T01:56:36;13.48;;;6.88;;
26981;SDS011;14533;50.848;4.380;2022-10-31T01:59:06;14.57;;;6.55;;
26981;SDS011;14533;50.848;4.380;2022-10-31T02:01:36;16.20;;;6.82;;
26981;SDS011;14533;50.848;4.380;2022-10-31T02:04:02;14.25;;;7.55;;
26981;SDS011;14533;50.848;4.380;2022-10-31T02:06:32;15.73;;;6.95;;
26981;SDS011;14533;50.848;4.380;2022-10-31T02:09:17;16.25;;;7.20;;
26981;SDS011;14533;50.848;4.380;2022-10-31T02:11:48;14.18;;;7.57;;
26981;SDS011;14533;50.848;4.380;2022-10-31T02:14:17;10.55;;;6.97;;
26981;SDS011;14533;50.848;4.380;2022-10-31T02:16:44;12.02;;;7.10;;
26981;SDS011;14533;50.848;4.380;2022-10-31T02:19:10;16.48;;;7.60;;
26981;SDS011;14533;50.848;4.380;2022-10-31T02:21:53;12.40;;;7.28;;
26981;SDS011;14533;50.848;4.380;2022-10-31T02:30:37;18.38;;;7.88;;
26981;SDS011;14533;50.848;4.380;2022-10-31T02:33:26;14.85;;;7.95;;
26981;SDS011;14533;50.848;4.380;2022-10-31T02:39:00;20.67;;;8.15;;
26981;SDS011;14533;50.848;4.380;2022-10-31T02:49:43;15.85;;;7.40;;
26981;SDS011;14533;50.848;4.380;2022-10-31T02:52:30;16.33;;;8.00;;
26981;SDS011;14533;50.848;4.380;2022-10-31T02:57:30;16.27;;;8.25;;
26981;SDS011;14533;50.848;4.380;2022-10-31T03:00:02;14.77;;;7.50;;
26981;SDS011;14533;50.848;4.380;2022-10-31T03:11:23;13.68;;;8.30;;
26981;SDS011;14533;50.848;4.380;2022-10-31T03:18:57;15.13;;;8.15;;
26981;SDS011;14533;50.848;4.380;2022-10-31T03:21:36;16.40;;;9.00;;
26981;SDS011;14533;50.848;4.380;2022-10-31T03:24:18;20.15;;;8.65;;
26981;SDS011;14533;50.848;4.380;2022-10-31T03:26:47;13.55;;;7.47;;
26981;SDS011;14533;50.848;4.380;2022-10-31T03:29:18;15.63;;;7.30;;
26981;SDS011;14533;50.848;4.380;2022-10-31T03:31:49;16.35;;;7.85;;
26981;SDS011;14533;50.848;4.380;2022-10-31T03:34:25;14.95;;;7.05;;
26981;SDS011;14533;50.848;4.380;2022-10-31T03:36:53;15.82;;;7.95;;
26981;SDS011;14533;50.848;4.380;2022-10-31T03:39:22;15.10;;;8.07;;
26981;SDS011;14533;50.848;4.380;2022-10-31T03:42:00;12.70;;;8.20;;
26981;SDS011;14533;50.848;4.380;2022-10-31T03:44:34;15.07;;;7.95;;
26981;SDS011;14533;50.848;4.380;2022-10-31T03:47:00;17.40;;;8.45;;
26981;SDS011;14533;50.848;4.380;2022-10-31T03:49:28;14.35;;;8.30;;
26981;SDS011;14533;50.848;4.380;2022-10-31T03:51:57;16.30;;;8.73;;
26981;SDS011;14533;50.848;4.380;2022-10-31T03:54:33;18.55;;;9.90;;
26981;SDS011;14533;50.848;4.380;2022-10-31T03:57:08;15.07;;;8.63;;
26981;SDS011;14533;50.848;4.380;2022-10-31T03:59:37;15.70;;;8.43;;
26981;SDS011;14533;50.848;4.380;2022-10-31T04:02:14;15.90;;;9.10;;
26981;SDS011;14533;50.848;4.380;2022-10-31T04:04:43;13.82;;;8.75;;
26981;SDS011;14533;50.848;4.380;2022-10-31T04:07:10;15.45;;;9.10;;
26981;SDS011;14533;50.848;4.380;2022-10-31T04:09:37;17.05;;;8.77;;
26981;SDS011;14533;50.848;4.380;2022-10-31T04:12:06;17.08;;;9.13;;
26981;SDS011;14533;50.848;4.380;2022-10-31T04:14:34;16.38;;;8.80;;
26981;SDS011;14533;50.848;4.380;2022-10-31T04:17:03;13.05;;;8.23;;
26981;SDS011;14533;50.848;4.380;2022-10-31T04:19:33;13.80;;;8.10;;
26981;SDS011;14533;50.848;4.380;2022-10-31T04:21:59;18.25;;;8.63;;
26981;SDS011;14533;50.848;4.380;2022-10-31T04:24:25;15.98;;;8.88;;
26981;SDS011;14533;50.848;4.380;2022-10-31T04:26:50;19.42;;;9.15;;
26981;SDS011;14533;50.848;4.380;2022-10-31T04:29:16;17.30;;;8.95;;
26981;SDS011;14533;50.848;4.380;2022-10-31T04:31:42;16.48;;;9.52;;
26981;SDS011;14533;50.848;4.380;2022-10-31T04:34:07;14.82;;;8.65;;
26981;SDS011;14533;50.848;4.380;2022-10-31T04:36:33;19.48;;;9.88;;
26981;SDS011;14533;50.848;4.380;2022-10-31T04:38:58;20.85;;;10.57;;
26981;SDS011;14533;50.848;4.380;2022-10-31T04:41:24;17.00;;;9.55;;
26981;SDS011;14533;50.848;4.380;2022-10-31T04:43:49;15.10;;;8.85;;
26981;SDS011;14533;50.848;4.380;2022-10-31T04:46:15;18.90;;;10.40;;
26981;SDS011;14533;50.848;4.380;2022-10-31T04:48:41;19.10;;;10.63;;
26981;SDS011;14533;50.848;4.380;2022-10-31T04:51:06;22.17;;;11.10;;
26981;SDS011;14533;50.848;4.380;2022-10-31T04:53:32;22.65;;;11.00;;
26981;SDS011;14533;50.848;4.380;2022-10-31T04:55:58;20.23;;;12.02;;
26981;SDS011;14533;50.848;4.380;2022-10-31T04:58:25;18.17;;;11.70;;
26981;SDS011;14533;50.848;4.380;2022-10-31T05:00:54;25.70;;;11.15;;
26981;SDS011;14533;50.848;4.380;2022-10-31T05:03:20;23.77;;;12.48;;
26981;SDS011;14533;50.848;4.380;2022-10-31T05:05:46;22.45;;;11.95;;
26981;SDS011;14533;50.848;4.380;2022-10-31T05:08:12;19.67;;;12.13;;
26981;SDS011;14533;50.848;4.380;2022-10-31T05:10:39;21.60;;;11.98;;
26981;SDS011;14533;50.848;4.380;2022-10-31T05:13:04;22.58;;;11.73;;
26981;SDS011;14533;50.848;4.380;2022-10-31T05:15:31;19.52;;;12.55;;
26981;SDS011;14533;50.848;4.380;2022-10-31T05:17:56;25.23;;;14.13;;
26981;SDS011;14533;50.848;4.380;2022-10-31T05:20:23;20.75;;;12.38;;
26981;SDS011;14533;50.848;4.380;2022-10-31T05:22:51;24.55;;;13.20;;
26981;SDS011;14533;50.848;4.380;2022-10-31T05:25:20;26.95;;;12.43;;
26981;SDS011;14533;50.848;4.380;2022-10-31T05:27:47;34.38;;;13.77;;
26981;SDS011;14533;50.848;4.380;2022-10-31T05:30:18;28.75;;;13.82;;
26981;SDS011;14533;50.848;4.380;2022-10-31T05:32:47;24.70;;;13.20;;
26981;SDS011;14533;50.848;4.380;2022-10-31T05:35:15;20.00;;;12.98;;
26981;SDS011;14533;50.848;4.380;2022-10-31T05:37:42;24.95;;;13.55;;
26981;SDS011;14533;50.848;4.380;2022-10-31T05:40:08;21.80;;;12.15;;
26981;SDS011;14533;50.848;4.380;2022-10-31T05:42:40;27.10;;;13.75;;
26981;SDS011;14533;50.848;4.380;2022-10-31T05:45:09;25.52;;;12.93;;
26981;SDS011;14533;50.848;4.380;2022-10-31T05:47:35;26.80;;;14.05;;
26981;SDS011;14533;50.848;4.380;2022-10-31T05:50:02;23.55;;;13.45;;
26981;SDS011;14533;50.848;4.380;2022-10-31T05:52:28;26.45;;;13.75;;
26981;SDS011;14533;50.848;4.380;2022-10-31T05:54:53;22.33;;;13.10;;
26981;SDS011;14533;50.848;4.380;2022-10-31T05:57:19;25.92;;;12.60;;
26981;SDS011;14533;50.848;4.380;2022-10-31T05:59:45;21.83;;;13.10;;
26981;SDS011;14533;50.848;4.380;2022-10-31T06:02:10;23.98;;;13.15;;
26981;SDS011;14533;50.848;4.380;2022-10-31T06:04:36;22.05;;;12.82;;
26981;SDS011;14533;50.848;4.380;2022-10-31T06:07:03;24.10;;;12.73;;
26981;SDS011;14533;50.848;4.380;2022-10-31T06:09:28;25.27;;;12.95;;
26981;SDS011;14533;50.848;4.380;2022-10-31T06:11:55;24.20;;;13.00;;
26981;SDS011;14533;50.848;4.380;2022-10-31T06:14:20;24.27;;;13.60;;
26981;SDS011;14533;50.848;4.380;2022-10-31T06:16:46;28.40;;;14.50;;
26981;SDS011;14533;50.848;4.380;2022-10-31T06:19:11;24.55;;;12.63;;
26981;SDS011;14533;50.848;4.380;2022-10-31T06:21:37;27.00;;;13.48;;
26981;SDS011;14533;50.848;4.380;2022-10-31T06:24:03;20.15;;;12.70;;
26981;SDS011;14533;50.848;4.380;2022-10-31T06:26:29;28.27;;;13.38;;
26981;SDS011;14533;50.848;4.380;2022-10-31T06:28:54;24.45;;;13.55;;
26981;SDS011;14533;50.848;4.380;2022-10-31T06:31:20;23.00;;;12.70;;
26981;SDS011;14533;50.848;4.380;2022-10-31T06:33:46;21.63;;;13.60;;
26981;SDS011;14533;50.848;4.380;2022-10-31T06:36:11;19.10;;;12.80;;
26981;SDS011;14533;50.848;4.380;2022-10-31T06:38:37;23.60;;;13.13;;
26981;SDS011;14533;50.848;4.380;2022-10-31T06:41:03;25.88;;;13.10;;
26981;SDS011;14533;50.848;4.380;2022-10-31T06:43:30;28.05;;;14.43;;
26981;SDS011;14533;50.848;4.380;2022-10-31T06:46:01;19.20;;;13.00;;
26981;SDS011;14533;50.848;4.380;2022-10-31T06:48:27;26.63;;;12.85;;
26981;SDS011;14533;50.848;4.380;2022-10-31T06:50:53;24.35;;;13.35;;
26981;SDS011;14533;50.848;4.380;2022-10-31T06:53:21;22.98;;;13.57;;
26981;SDS011;14533;50.848;4.380;2022-10-31T06:55:47;22.70;;;12.52;;
26981;SDS011;14533;50.848;4.380;2022-10-31T06:58:13;19.00;;;12.95;;
26981;SDS011;14533;50.848;4.380;2022-10-31T07:00:39;26.27;;;12.98;;
26981;SDS011;14533;50.848;4.380;2022-10-31T07:03:06;18.23;;;12.25;;
26981;SDS011;14533;50.848;4.380;2022-10-31T07:05:34;21.13;;;12.48;;
26981;SDS011;14533;50.848;4.380;2022-10-31T07:08:01;21.75;;;13.13;;
26981;SDS011;14533;50.848;4.380;2022-10-31T07:10:31;24.00;;;12.55;;
26981;SDS011;14533;50.848;4.380;2022-10-31T07:12:59;20.23;;;12.48;;
26981;SDS011;14533;50.848;4.380;2022-10-31T07:15:26;23.23;;;12.23;;
26981;SDS011;14533;50.848;4.380;2022-10-31T07:17:58;31.52;;;13.85;;
26981;SDS011;14533;50.848;4.380;2022-10-31T07:20:26;22.55;;;12.77;;
26981;SDS011;14533;50.848;4.380;2022-10-31T07:22:52;22.48;;;13.32;;
26981;SDS011;14533;50.848;4.380;2022-10-31T07:25:17;23.65;;;13.25;;
26981;SDS011;14533;50.848;4.380;2022-10-31T07:27:43;24.10;;;14.27;;
26981;SDS011;14533;50.848;4.380;2022-10-31T07:30:10;19.55;;;12.88;;
26981;SDS011;14533;50.848;4.380;2022-10-31T07:32:40;24.15;;;15.20;;
26981;SDS011;14533;50.848;4.380;2022-10-31T07:35:08;18.95;;;12.65;;
26981;SDS011;14533;50.848;4.380;2022-10-31T07:37:34;23.13;;;13.25;;
26981;SDS011;14533;50.848;4.380;2022-10-31T07:40:01;23.02;;;13.70;;
26981;SDS011;14533;50.848;4.380;2022-10-31T07:42:27;22.55;;;14.02;;
26981;SDS011;14533;50.848;4.380;2022-10-31T07:44:53;18.40;;;12.73;;
26981;SDS011;14533;50.848;4.380;2022-10-31T07:47:19;22.45;;;13.30;;
26981;SDS011;14533;50.848;4.380;2022-10-31T07:49:45;24.83;;;14.75;;
26981;SDS011;14533;50.848;4.380;2022-10-31T07:52:11;25.98;;;14.25;;
26981;SDS011;14533;50.848;4.380;2022-10-31T07:54:36;23.45;;;13.32;;
26981;SDS011;14533;50.848;4.380;2022-10-31T07:57:02;27.73;;;12.55;;
26981;SDS011;14533;50.848;4.380;2022-10-31T07:59:27;30.63;;;13.80;;
26981;SDS011;14533;50.848;4.380;2022-10-31T08:01:53;22.15;;;12.27;;
26981;SDS011;14533;50.848;4.380;2022-10-31T08:04:19;20.20;;;12.43;;
26981;SDS011;14533;50.848;4.380;2022-10-31T08:06:44;20.33;;;11.98;;
26981;SDS011;14533;50.848;4.380;2022-10-31T08:09:10;20.23;;;11.73;;
26981;SDS011;14533;50.848;4.380;2022-10-31T08:11:35;19.77;;;11.77;;
26981;SDS011;14533;50.848;4.380;2022-10-31T08:14:01;19.13;;;10.70;;
26981;SDS011;14533;50.848;4.380;2022-10-31T08:16:27;26.90;;;11.50;;
26981;SDS011;14533;50.848;4.380;2022-10-31T08:18:52;16.00;;;10.48;;
26981;SDS011;14533;50.848;4.380;2022-10-31T08:21:20;18.75;;;11.60;;
26981;SDS011;14533;50.848;4.380;2022-10-31T08:23:46;18.58;;;10.95;;
26981;SDS011;14533;50.848;4.380;2022-10-31T08:26:12;20.77;;;10.63;;
26981;SDS011;14533;50.848;4.380;2022-10-31T08:28:37;19.33;;;11.30;;
26981;SDS011;14533;50.848;4.380;2022-10-31T08:31:03;19.60;;;10.73;;
26981;SDS011;14533;50.848;4.380;2022-10-31T08:33:35;17.75;;;11.13;;
26981;SDS011;14533;50.848;4.380;2022-10-31T08:36:01;19.27;;;11.60;;
26981;SDS011;14533;50.848;4.380;2022-10-31T08:38:26;16.88;;;9.82;;
26981;SDS011;14533;50.848;4.380;2022-10-31T08:40:53;15.43;;;10.75;;
26981;SDS011;14533;50.848;4.380;2022-10-31T08:43:21;18.50;;;11.52;;
26981;SDS011;14533;50.848;4.380;2022-10-31T08:45:49;18.73;;;10.73;;
26981;SDS011;14533;50.848;4.380;2022-10-31T08:48:19;16.67;;;8.82;;
26981;SDS011;14533;50.848;4.380;2022-10-31T08:50:45;17.45;;;10.32;;
26981;SDS011;14533;50.848;4.380;2022-10-31T08:53:18;18.15;;;9.95;;
26981;SDS011;14533;50.848;4.380;2022-10-31T08:55:44;13.82;;;9.02;;
26981;SDS011;14533;50.848;4.380;2022-10-31T08:58:13;20.02;;;9.65;;
26981;SDS011;14533;50.848;4.380;2022-10-31T09:00:41;12.35;;;8.57;;
26981;SDS011;14533;50.848;4.380;2022-10-31T09:03:15;16.52;;;8.48;;
26981;SDS011;14533;50.848;4.380;2022-10-31T09:05:46;16.98;;;8.43;;
26981;SDS011;14533;50.848;4.380;2022-10-31T09:08:12;13.20;;;8.57;;
26981;SDS011;14533;50.848;4.380;2022-10-31T09:10:38;11.57;;;8.38;;
26981;SDS011;14533;50.848;4.380;2022-10-31T09:13:18;14.77;;;8.35;;
26981;SDS011;14533;50.848;4.380;2022-10-31T09:15:45;15.07;;;7.60;;
26981;SDS011;14533;50.848;4.380;2022-10-31T09:18:13;18.23;;;7.60;;
26981;SDS011;14533;50.848;4.380;2022-10-31T09:20:40;14.23;;;7.95;;
26981;SDS011;14533;50.848;4.380;2022-10-31T09:23:12;15.98;;;8.18;;
26981;SDS011;14533;50.848;4.380;2022-10-31T09:28:06;18.20;;;7.80;;
26981;SDS011;14533;50.848;4.380;2022-10-31T09:30:37;16.05;;;8.85;;
26981;SDS011;14533;50.848;4.380;2022-10-31T09:33:12;20.77;;;9.40;;
26981;SDS011;14533;50.848;4.380;2022-10-31T09:35:39;16.00;;;8.43;;
26981;SDS011;14533;50.848;4.380;2022-10-31T09:38:12;16.13;;;8.57;;
26981;SDS011;14533;50.848;4.380;2022-10-31T09:40:48;16.77;;;7.85;;
26981;SDS011;14533;50.848;4.380;2022-10-31T09:52:36;13.07;;;7.45;;
26981;SDS011;14533;50.848;4.380;2022-10-31T09:54:46;14.65;;;8.10;;
26981;SDS011;14533;50.848;4.380;2022-10-31T09:57:35;13.18;;;7.70;;
26981;SDS011;14533;50.848;4.380;2022-10-31T10:00:04;14.85;;;7.40;;
26981;SDS011;14533;50.848;4.380;2022-10-31T10:05:03;11.82;;;7.97;;
26981;SDS011;14533;50.848;4.380;2022-10-31T10:10:17;13.98;;;7.72;;
26981;SDS011;14533;50.848;4.380;2022-10-31T10:19:07;18.38;;;7.70;;
26981;SDS011;14533;50.848;4.380;2022-10-31T10:21:51;13.00;;;8.02;;
26981;SDS011;14533;50.848;4.380;2022-10-31T10:30:16;19.60;;;8.85;;
26981;SDS011;14533;50.848;4.380;2022-10-31T10:32:51;19.58;;;9.23;;
26981;SDS011;14533;50.848;4.380;2022-10-31T10:38:01;21.15;;;8.82;;
26981;SDS011;14533;50.848;4.380;2022-10-31T10:40:47;18.48;;;8.20;;
26981;SDS011;14533;50.848;4.380;2022-10-31T10:45:50;20.58;;;9.00;;
26981;SDS011;14533;50.848;4.380;2022-10-31T10:49:07;15.98;;;9.05;;
26981;SDS011;14533;50.848;4.380;2022-10-31T10:51:44;22.30;;;9.82;;
26981;SDS011;14533;50.848;4.380;2022-10-31T10:59:39;16.55;;;8.68;;
26981;SDS011;14533;50.848;4.380;2022-10-31T11:02:15;22.35;;;9.43;;
26981;SDS011;14533;50.848;4.380;2022-10-31T11:04:52;17.13;;;8.98;;
26981;SDS011;14533;50.848;4.380;2022-10-31T11:07:20;19.02;;;10.32;;
26981;SDS011;14533;50.848;4.380;2022-10-31T11:09:46;20.27;;;9.95;;
26981;SDS011;14533;50.848;4.380;2022-10-31T11:12:17;19.92;;;10.50;;
26981;SDS011;14533;50.848;4.380;2022-10-31T11:14:57;20.70;;;10.25;;
26981;SDS011;14533;50.848;4.380;2022-10-31T11:17:32;26.08;;;11.27;;
26981;SDS011;14533;50.848;4.380;2022-10-31T11:22:39;25.48;;;10.57;;
26981;SDS011;14533;50.848;4.380;2022-10-31T11:27:46;20.63;;;10.38;;
26981;SDS011;14533;50.848;4.380;2022-10-31T11:30:23;23.95;;;9.60;;
26981;SDS011;14533;50.848;4.380;2022-10-31T11:32:49;19.85;;;9.65;;
26981;SDS011;14533;50.848;4.380;2022-10-31T11:35:18;20.92;;;10.57;;
26981;SDS011;14533;50.848;4.380;2022-10-31T11:37:47;26.25;;;10.30;;
26981;SDS011;14533;50.848;4.380;2022-10-31T11:40:19;19.40;;;11.20;;
26981;SDS011;14533;50.848;4.380;2022-10-31T11:42:50;21.05;;;9.73;;
26981;SDS011;14533;50.848;4.380;2022-10-31T11:45:27;20.40;;;10.27;;
26981;SDS011;14533;50.848;4.380;2022-10-31T11:47:59;16.60;;;9.48;;
26981;SDS011;14533;50.848;4.380;2022-10-31T11:50:34;18.60;;;9.68;;
26981;SDS011;14533;50.848;4.380;2022-10-31T11:53:15;19.77;;;10.68;;
26981;SDS011;14533;50.848;4.380;2022-10-31T11:55:42;15.13;;;9.77;;
26981;SDS011;14533;50.848;4.380;2022-10-31T11:58:19;18.38;;;10.05;;
26981;SDS011;14533;50.848;4.380;2022-10-31T12:00:50;18.65;;;10.10;;
26981;SDS011;14533;50.848;4.380;2022-10-31T12:05:46;20.52;;;10.70;;
26981;SDS011;14533;50.848;4.380;2022-10-31T12:08:31;19.25;;;10.48;;
26981;SDS011;14533;50.848;4.380;2022-10-31T12:16:29;16.45;;;10.00;;
26981;SDS011;14533;50.848;4.380;2022-10-31T12:24:11;21.38;;;9.60;;
26981;SDS011;14533;50.848;4.380;2022-10-31T12:26:42;19.10;;;11.10;;
26981;SDS011;14533;50.848;4.380;2022-10-31T12:31:57;25.27;;;9.45;;
26981;SDS011;14533;50.848;4.380;2022-10-31T12:34:52;19.50;;;9.38;;
26981;SDS011;14533;50.848;4.380;2022-10-31T12:45:55;20.80;;;8.55;;
26981;SDS011;14533;50.848;4.380;2022-10-31T12:51:29;22.88;;;7.75;;
26981;SDS011;14533;50.848;4.380;2022-10-31T12:59:42;15.20;;;7.35;;
26981;SDS011;14533;50.848;4.380;2022-10-31T13:02:18;15.80;;;7.70;;
26981;SDS011;14533;50.848;4.380;2022-10-31T13:04:58;21.98;;;8.07;;
26981;SDS011;14533;50.848;4.380;2022-10-31T13:10:05;26.10;;;7.18;;
26981;SDS011;14533;50.848;4.380;2022-10-31T13:12:32;19.67;;;7.95;;
26981;SDS011;14533;50.848;4.380;2022-10-31T13:15:02;19.73;;;7.22;;
26981;SDS011;14533;50.848;4.380;2022-10-31T13:20:17;15.82;;;7.05;;
26981;SDS011;14533;50.848;4.380;2022-10-31T13:22:45;18.65;;;8.32;;
26981;SDS011;14533;50.848;4.380;2022-10-31T13:25:31;28.05;;;7.43;;
26981;SDS011;14533;50.848;4.380;2022-10-31T13:28:02;14.32;;;7.20;;
26981;SDS011;14533;50.848;4.380;2022-10-31T13:30:36;18.02;;;7.38;;
26981;SDS011;14533;50.848;4.380;2022-10-31T13:46:49;23.48;;;8.02;;
26981;SDS011;14533;50.848;4.380;2022-10-31T13:52:15;15.40;;;8.00;;
26981;SDS011;14533;50.848;4.380;2022-10-31T13:54:49;14.65;;;7.82;;
26981;SDS011;14533;50.848;4.380;2022-10-31T14:02:49;24.13;;;8.48;;
26981;SDS011;14533;50.848;4.380;2022-10-31T14:05:25;22.13;;;7.68;;
26981;SDS011;14533;50.848;4.380;2022-10-31T14:07:54;16.67;;;8.15;;
26981;SDS011;14533;50.848;4.380;2022-10-31T14:10:28;18.35;;;8.65;;
26981;SDS011;14533;50.848;4.380;2022-10-31T14:15:52;18.13;;;7.18;;
26981;SDS011;14533;50.848;4.380;2022-10-31T14:18:27;17.63;;;6.60;;
26981;SDS011;14533;50.848;4.380;2022-10-31T14:20:59;16.77;;;6.13;;
26981;SDS011;14533;50.848;4.380;2022-10-31T14:29:38;14.65;;;6.82;;
26981;SDS011;14533;50.848;4.380;2022-10-31T14:31:39;16.85;;;6.72;;
26981;SDS011;14533;50.848;4.380;2022-10-31T14:39:20;14.60;;;5.45;;
26981;SDS011;14533;50.848;4.380;2022-10-31T14:50:48;17.45;;;6.07;;
26981;SDS011;14533;50.848;4.380;2022-10-31T14:53:26;13.20;;;6.07;;
26981;SDS011;14533;50.848;4.380;2022-10-31T14:55:53;13.32;;;6.35;;
26981;SDS011;14533;50.848;4.380;2022-10-31T14:58:21;13.93;;;5.28;;
26981;SDS011;14533;50.848;4.380;2022-10-31T15:01:00;14.02;;;5.97;;
26981;SDS011;14533;50.848;4.380;2022-10-31T15:06:13;16.23;;;6.60;;
26981;SDS011;14533;50.848;4.380;2022-10-31T15:08:45;19.02;;;6.32;;
26981;SDS011;14533;50.848;4.380;2022-10-31T15:11:19;15.82;;;6.07;;
26981;SDS011;14533;50.848;4.380;2022-10-31T15:16:24;16.38;;;6.80;;
26981;SDS011;14533;50.848;4.380;2022-10-31T15:18:56;20.85;;;6.78;;
26981;SDS011;14533;50.848;4.380;2022-10-31T15:21:25;22.98;;;7.03;;
26981;SDS011;14533;50.848;4.380;2022-10-31T15:23:53;17.48;;;6.90;;
26981;SDS011;14533;50.848;4.380;2022-10-31T15:26:24;17.55;;;7.18;;
26981;SDS011;14533;50.848;4.380;2022-10-31T15:29:01;24.83;;;7.82;;
26981;SDS011;14533;50.848;4.380;2022-10-31T15:31:29;20.88;;;8.48;;
26981;SDS011;14533;50.848;4.380;2022-10-31T15:33:58;18.77;;;8.65;;
26981;SDS011;14533;50.848;4.380;2022-10-31T15:36:28;22.13;;;8.63;;
26981;SDS011;14533;50.848;4.380;2022-10-31T15:38:55;19.77;;;9.98;;
26981;SDS011;14533;50.848;4.380;2022-10-31T15:41:24;18.65;;;9.00;;
26981;SDS011;14533;50.848;4.380;2022-10-31T15:44:06;21.33;;;9.75;;
26981;SDS011;14533;50.848;4.380;2022-10-31T15:47:05;26.95;;;9.35;;
26981;SDS011;14533;50.848;4.380;2022-10-31T15:49:41;16.63;;;8.23;;
26981;SDS011;14533;50.848;4.380;2022-10-31T15:57:34;23.02;;;9.63;;
26981;SDS011;14533;50.848;4.380;2022-10-31T16:00:06;19.08;;;9.00;;
26981;SDS011;14533;50.848;4.380;2022-10-31T16:02:46;20.17;;;9.80;;
26981;SDS011;14533;50.848;4.380;2022-10-31T16:05:15;19.73;;;9.80;;
26981;SDS011;14533;50.848;4.380;2022-10-31T16:07:49;25.13;;;10.88;;
26981;SDS011;14533;50.848;4.380;2022-10-31T16:10:26;16.00;;;9.23;;
26981;SDS011;14533;50.848;4.380;2022-10-31T16:12:52;21.00;;;10.27;;
26981;SDS011;14533;50.848;4.380;2022-10-31T16:15:19;22.95;;;11.10;;
26981;SDS011;14533;50.848;4.380;2022-10-31T16:17:47;19.80;;;10.07;;
26981;SDS011;14533;50.848;4.380;2022-10-31T16:20:18;24.48;;;10.73;;
26981;SDS011;14533;50.848;4.380;2022-10-31T16:22:50;17.85;;;9.80;;
26981;SDS011;14533;50.848;4.380;2022-10-31T16:25:19;20.60;;;9.88;;
26981;SDS011;14533;50.848;4.380;2022-10-31T16:27:49;22.25;;;9.18;;
26981;SDS011;14533;50.848;4.380;2022-10-31T16:30:27;29.80;;;11.20;;
26981;SDS011;14533;50.848;4.380;2022-10-31T16:32:56;28.70;;;10.48;;
26981;SDS011;14533;50.848;4.380;2022-10-31T16:35:34;23.00;;;10.35;;
26981;SDS011;14533;50.848;4.380;2022-10-31T16:38:06;26.17;;;10.50;;
26981;SDS011;14533;50.848;4.380;2022-10-31T16:40:34;26.23;;;9.73;;
26981;SDS011;14533;50.848;4.380;2022-10-31T16:45:34;26.65;;;9.98;;
26981;SDS011;14533;50.848;4.380;2022-10-31T16:48:03;24.73;;;9.88;;
26981;SDS011;14533;50.848;4.380;2022-10-31T16:52:58;19.80;;;10.55;;
26981;SDS011;14533;50.848;4.380;2022-10-31T16:55:24;23.67;;;10.18;;
26981;SDS011;14533;50.848;4.380;2022-10-31T16:57:50;25.40;;;10.48;;
26981;SDS011;14533;50.848;4.380;2022-10-31T17:00:18;21.10;;;9.07;;
26981;SDS011;14533;50.848;4.380;2022-10-31T17:02:46;25.23;;;9.60;;
26981;SDS011;14533;50.848;4.380;2022-10-31T17:05:15;18.10;;;9.27;;
26981;SDS011;14533;50.848;4.380;2022-10-31T17:07:42;15.18;;;8.18;;
26981;SDS011;14533;50.848;4.380;2022-10-31T17:10:08;15.82;;;8.07;;
26981;SDS011;14533;50.848;4.380;2022-10-31T17:12:35;18.67;;;8.65;;
26981;SDS011;14533;50.848;4.380;2022-10-31T17:15:03;15.23;;;7.78;;
26981;SDS011;14533;50.848;4.380;2022-10-31T17:17:30;19.48;;;7.80;;
26981;SDS011;14533;50.848;4.380;2022-10-31T17:20:07;20.55;;;8.00;;
26981;SDS011;14533;50.848;4.380;2022-10-31T17:22:44;19.05;;;7.13;;
26981;SDS011;14533;50.848;4.380;2022-10-31T17:25:18;18.75;;;7.43;;
26981;SDS011;14533;50.848;4.380;2022-10-31T17:27:48;14.88;;;6.55;;
26981;SDS011;14533;50.848;4.380;2022-10-31T17:30:17;16.73;;;6.90;;
26981;SDS011;14533;50.848;4.380;2022-10-31T17:32:46;15.55;;;6.78;;
26981;SDS011;14533;50.848;4.380;2022-10-31T17:35:13;28.35;;;7.00;;
26981;SDS011;14533;50.848;4.380;2022-10-31T17:37:42;14.63;;;6.05;;
26981;SDS011;14533;50.848;4.380;2022-10-31T17:40:11;25.98;;;7.30;;
26981;SDS011;14533;50.848;4.380;2022-10-31T17:42:40;13.30;;;6.57;;
26981;SDS011;14533;50.848;4.380;2022-10-31T17:45:08;14.60;;;6.40;;